sensor_id;sensor_type;location;lat;lon;timestamp;temperature;humidity
39777;DHT22;25453;48.162;14.510;2023-07-28T00:01:05;20.90;60.00
39777;DHT22;25453;48.162;14.510;2023-07-28T00:03:33;20.90;60.10
39777;DHT22;25453;48.162;14.510;2023-07-28T00:06:00;20.90;60.40
39777;DHT22;25453;48.162;14.510;2023-07-28T00:08:27;20.90;60.60
39777;DHT22;25453;48.162;14.510;2023-07-28T00:10:54;20.90;60.70
39777;DHT22;25453;48.162;14.510;2023-07-28T00:13:22;20.90;60.90
39777;DHT22;25453;48.162;14.510;2023-07-28T00:15:49;20.90;61.00
39777;DHT22;25453;48.162;14.510;2023-07-28T00:18:16;20.80;61.30
39777;DHT22;25453;48.162;14.510;2023-07-28T00:20:45;20.80;61.40
39777;DHT22;25453;48.162;14.510;2023-07-28T00:23:12;20.80;61.70
39777;DHT22;25453;48.162;14.510;2023-07-28T00:25:39;20.70;62.00
39777;DHT22;25453;48.162;14.510;2023-07-28T00:28:06;20.70;62.10
39777;DHT22;25453;48.162;14.510;2023-07-28T00:30:34;20.70;62.30
39777;DHT22;25453;48.162;14.510;2023-07-28T00:33:01;20.70;62.40
39777;DHT22;25453;48.162;14.510;2023-07-28T00:35:28;20.70;62.40
39777;DHT22;25453;48.162;14.510;2023-07-28T00:37:55;20.70;62.50
39777;DHT22;25453;48.162;14.510;2023-07-28T00:40:23;20.70;62.50
39777;DHT22;25453;48.162;14.510;2023-07-28T00:42:50;20.60;62.80
39777;DHT22;25453;48.162;14.510;2023-07-28T00:45:18;20.60;62.80
39777;DHT22;25453;48.162;14.510;2023-07-28T00:47:45;20.60;62.80
39777;DHT22;25453;48.162;14.510;2023-07-28T00:50:13;20.50;63.00
39777;DHT22;25453;48.162;14.510;2023-07-28T00:52:40;20.50;63.30
39777;DHT22;25453;48.162;14.510;2023-07-28T00:55:08;20.50;63.30
39777;DHT22;25453;48.162;14.510;2023-07-28T00:57:36;20.40;63.40
39777;DHT22;25453;48.162;14.510;2023-07-28T01:00:09;20.30;63.60
39777;DHT22;25453;48.162;14.510;2023-07-28T01:02:37;20.30;63.80
39777;DHT22;25453;48.162;14.510;2023-07-28T01:05:05;20.20;64.10
39777;DHT22;25453;48.162;14.510;2023-07-28T01:08:06;20.20;64.20
39777;DHT22;25453;48.162;14.510;2023-07-28T01:10:38;20.20;64.50
39777;DHT22;25453;48.162;14.510;2023-07-28T01:13:06;20.20;64.60
39777;DHT22;25453;48.162;14.510;2023-07-28T01:15:33;20.20;64.90
39777;DHT22;25453;48.162;14.510;2023-07-28T01:18:00;20.20;64.80
39777;DHT22;25453;48.162;14.510;2023-07-28T01:20:30;20.10;65.00
39777;DHT22;25453;48.162;14.510;2023-07-28T01:28:22;20.10;65.30
39777;DHT22;25453;48.162;14.510;2023-07-28T01:30:50;20.10;65.40
39777;DHT22;25453;48.162;14.510;2023-07-28T01:33:17;20.10;65.50
39777;DHT22;25453;48.162;14.510;2023-07-28T01:35:44;20.10;65.70
39777;DHT22;25453;48.162;14.510;2023-07-28T01:38:11;20.10;65.80
39777;DHT22;25453;48.162;14.510;2023-07-28T01:40:40;20.20;65.80
39777;DHT22;25453;48.162;14.510;2023-07-28T01:43:07;20.20;65.80
39777;DHT22;25453;48.162;14.510;2023-07-28T01:45:34;20.20;65.80
39777;DHT22;25453;48.162;14.510;2023-07-28T01:48:01;20.20;65.80
39777;DHT22;25453;48.162;14.510;2023-07-28T01:50:28;20.20;65.90
39777;DHT22;25453;48.162;14.510;2023-07-28T01:52:56;20.20;65.90
39777;DHT22;25453;48.162;14.510;2023-07-28T01:55:23;20.20;65.90
39777;DHT22;25453;48.162;14.510;2023-07-28T01:57:54;20.20;65.80
39777;DHT22;25453;48.162;14.510;2023-07-28T02:00:21;20.10;65.80
39777;DHT22;25453;48.162;14.510;2023-07-28T02:02:49;20.10;65.80
39777;DHT22;25453;48.162;14.510;2023-07-28T02:05:16;20.10;65.80
39777;DHT22;25453;48.162;14.510;2023-07-28T02:07:44;20.00;66.00
39777;DHT22;25453;48.162;14.510;2023-07-28T02:10:11;20.00;66.10
39777;DHT22;25453;48.162;14.510;2023-07-28T02:12:38;20.00;66.20
39777;DHT22;25453;48.162;14.510;2023-07-28T02:15:07;20.00;66.00
39777;DHT22;25453;48.162;14.510;2023-07-28T02:17:34;19.90;65.90
39777;DHT22;25453;48.162;14.510;2023-07-28T02:20:02;19.80;66.10
39777;DHT22;25453;48.162;14.510;2023-07-28T02:22:30;19.80;66.30
39777;DHT22;25453;48.162;14.510;2023-07-28T02:24:57;19.70;66.40
39777;DHT22;25453;48.162;14.510;2023-07-28T02:27:28;19.70;66.70
39777;DHT22;25453;48.162;14.510;2023-07-28T02:29:56;19.70;66.90
39777;DHT22;25453;48.162;14.510;2023-07-28T02:32:23;19.60;67.00
39777;DHT22;25453;48.162;14.510;2023-07-28T02:34:50;19.60;67.20
39777;DHT22;25453;48.162;14.510;2023-07-28T02:37:18;19.70;67.20
39777;DHT22;25453;48.162;14.510;2023-07-28T02:39:45;19.70;67.10
39777;DHT22;25453;48.162;14.510;2023-07-28T02:42:13;19.70;66.90
39777;DHT22;25453;48.162;14.510;2023-07-28T02:44:40;19.70;67.00
39777;DHT22;25453;48.162;14.510;2023-07-28T02:47:07;19.70;66.90
39777;DHT22;25453;48.162;14.510;2023-07-28T02:49:35;19.80;66.80
39777;DHT22;25453;48.162;14.510;2023-07-28T02:52:02;19.80;66.80
39777;DHT22;25453;48.162;14.510;2023-07-28T02:54:30;19.80;66.70
39777;DHT22;25453;48.162;14.510;2023-07-28T02:56:57;19.80;66.70
39777;DHT22;25453;48.162;14.510;2023-07-28T02:59:24;19.90;66.60
39777;DHT22;25453;48.162;14.510;2023-07-28T03:01:52;19.90;66.30
39777;DHT22;25453;48.162;14.510;2023-07-28T03:04:19;19.90;66.30
39777;DHT22;25453;48.162;14.510;2023-07-28T03:06:48;19.90;66.10
39777;DHT22;25453;48.162;14.510;2023-07-28T03:09:15;19.90;66.10
39777;DHT22;25453;48.162;14.510;2023-07-28T03:11:43;19.80;65.80
39777;DHT22;25453;48.162;14.510;2023-07-28T03:14:10;19.80;65.90
39777;DHT22;25453;48.162;14.510;2023-07-28T03:16:41;19.80;65.90
39777;DHT22;25453;48.162;14.510;2023-07-28T03:19:08;19.80;65.90
39777;DHT22;25453;48.162;14.510;2023-07-28T03:21:35;19.80;65.90
39777;DHT22;25453;48.162;14.510;2023-07-28T03:24:06;19.80;65.90
39777;DHT22;25453;48.162;14.510;2023-07-28T03:26:33;19.80;65.80
39777;DHT22;25453;48.162;14.510;2023-07-28T03:29:01;19.70;65.80
39777;DHT22;25453;48.162;14.510;2023-07-28T03:31:28;19.70;65.90
39777;DHT22;25453;48.162;14.510;2023-07-28T03:33:55;19.70;66.00
39777;DHT22;25453;48.162;14.510;2023-07-28T03:36:23;19.70;66.00
39777;DHT22;25453;48.162;14.510;2023-07-28T03:38:50;19.60;66.10
39777;DHT22;25453;48.162;14.510;2023-07-28T03:41:17;19.60;66.20
39777;DHT22;25453;48.162;14.510;2023-07-28T03:43:45;19.50;66.30
39777;DHT22;25453;48.162;14.510;2023-07-28T03:46:12;19.50;66.50
39777;DHT22;25453;48.162;14.510;2023-07-28T03:48:39;19.50;66.30
39777;DHT22;25453;48.162;14.510;2023-07-28T03:51:06;19.40;66.50
39777;DHT22;25453;48.162;14.510;2023-07-28T03:53:33;19.40;66.70
39777;DHT22;25453;48.162;14.510;2023-07-28T03:56:02;19.40;66.70
39777;DHT22;25453;48.162;14.510;2023-07-28T03:58:30;19.40;66.60
39777;DHT22;25453;48.162;14.510;2023-07-28T04:00:57;19.30;66.60
39777;DHT22;25453;48.162;14.510;2023-07-28T04:03:25;19.30;66.70
39777;DHT22;25453;48.162;14.510;2023-07-28T04:05:52;19.20;66.80
39777;DHT22;25453;48.162;14.510;2023-07-28T04:08:19;19.10;66.80
39777;DHT22;25453;48.162;14.510;2023-07-28T04:10:46;19.10;66.90
39777;DHT22;25453;48.162;14.510;2023-07-28T04:13:13;19.10;66.90
39777;DHT22;25453;48.162;14.510;2023-07-28T04:15:40;19.10;66.90
39777;DHT22;25453;48.162;14.510;2023-07-28T04:18:08;19.10;66.90
39777;DHT22;25453;48.162;14.510;2023-07-28T04:20:35;19.10;66.90
39777;DHT22;25453;48.162;14.510;2023-07-28T04:23:02;19.00;67.00
39777;DHT22;25453;48.162;14.510;2023-07-28T04:25:30;19.00;67.10
39777;DHT22;25453;48.162;14.510;2023-07-28T04:27:57;19.00;67.20
39777;DHT22;25453;48.162;14.510;2023-07-28T04:30:24;19.00;67.20
39777;DHT22;25453;48.162;14.510;2023-07-28T04:32:51;19.00;67.00
39777;DHT22;25453;48.162;14.510;2023-07-28T04:35:18;19.00;66.90
39777;DHT22;25453;48.162;14.510;2023-07-28T04:37:46;19.00;66.90
39777;DHT22;25453;48.162;14.510;2023-07-28T04:40:13;19.00;66.80
39777;DHT22;25453;48.162;14.510;2023-07-28T04:42:43;19.10;66.60
39777;DHT22;25453;48.162;14.510;2023-07-28T04:45:10;19.10;66.40
39777;DHT22;25453;48.162;14.510;2023-07-28T04:47:37;19.10;66.10
39777;DHT22;25453;48.162;14.510;2023-07-28T04:50:05;19.10;66.00
39777;DHT22;25453;48.162;14.510;2023-07-28T04:52:32;19.20;65.90
39777;DHT22;25453;48.162;14.510;2023-07-28T04:54:59;19.30;65.80
39777;DHT22;25453;48.162;14.510;2023-07-28T04:57:26;19.30;65.60
39777;DHT22;25453;48.162;14.510;2023-07-28T04:59:53;19.30;65.50
39777;DHT22;25453;48.162;14.510;2023-07-28T05:02:21;19.40;65.30
39777;DHT22;25453;48.162;14.510;2023-07-28T05:04:48;19.40;65.20
39777;DHT22;25453;48.162;14.510;2023-07-28T05:07:15;19.50;65.10
39777;DHT22;25453;48.162;14.510;2023-07-28T05:09:42;19.50;64.90
39777;DHT22;25453;48.162;14.510;2023-07-28T05:12:11;19.60;64.80
39777;DHT22;25453;48.162;14.510;2023-07-28T05:14:39;19.70;64.70
39777;DHT22;25453;48.162;14.510;2023-07-28T05:17:06;19.70;64.30
39777;DHT22;25453;48.162;14.510;2023-07-28T05:19:34;19.80;64.10
39777;DHT22;25453;48.162;14.510;2023-07-28T05:22:01;19.80;63.90
39777;DHT22;25453;48.162;14.510;2023-07-28T05:24:28;19.90;63.80
39777;DHT22;25453;48.162;14.510;2023-07-28T05:26:56;19.90;63.70
39777;DHT22;25453;48.162;14.510;2023-07-28T05:29:24;19.90;63.60
39777;DHT22;25453;48.162;14.510;2023-07-28T05:31:51;20.00;63.60
39777;DHT22;25453;48.162;14.510;2023-07-28T05:34:19;20.00;63.50
39777;DHT22;25453;48.162;14.510;2023-07-28T05:36:46;20.00;63.40
39777;DHT22;25453;48.162;14.510;2023-07-28T05:39:13;20.00;63.20
39777;DHT22;25453;48.162;14.510;2023-07-28T05:41:40;20.10;63.10
39777;DHT22;25453;48.162;14.510;2023-07-28T05:44:07;20.10;63.00
39777;DHT22;25453;48.162;14.510;2023-07-28T05:46:34;20.10;62.80
39777;DHT22;25453;48.162;14.510;2023-07-28T05:49:02;20.10;62.70
39777;DHT22;25453;48.162;14.510;2023-07-28T05:51:29;20.10;62.60
39777;DHT22;25453;48.162;14.510;2023-07-28T05:53:56;20.20;62.60
39777;DHT22;25453;48.162;14.510;2023-07-28T05:56:24;20.20;62.60
39777;DHT22;25453;48.162;14.510;2023-07-28T05:58:51;20.20;62.50
39777;DHT22;25453;48.162;14.510;2023-07-28T06:01:18;20.20;62.50
39777;DHT22;25453;48.162;14.510;2023-07-28T06:03:46;20.20;62.50
39777;DHT22;25453;48.162;14.510;2023-07-28T06:06:13;20.30;62.30
39777;DHT22;25453;48.162;14.510;2023-07-28T06:08:40;20.30;62.20
39777;DHT22;25453;48.162;14.510;2023-07-28T06:11:08;20.30;62.00
39777;DHT22;25453;48.162;14.510;2023-07-28T06:13:35;20.40;62.00
39777;DHT22;25453;48.162;14.510;2023-07-28T06:16:02;20.40;61.90
39777;DHT22;25453;48.162;14.510;2023-07-28T06:18:30;20.40;61.80
39777;DHT22;25453;48.162;14.510;2023-07-28T06:20:57;20.40;61.80
39777;DHT22;25453;48.162;14.510;2023-07-28T06:23:24;20.50;61.70
39777;DHT22;25453;48.162;14.510;2023-07-28T06:25:51;20.50;61.70
39777;DHT22;25453;48.162;14.510;2023-07-28T06:28:18;20.50;62.00
39777;DHT22;25453;48.162;14.510;2023-07-28T06:30:46;20.60;62.20
39777;DHT22;25453;48.162;14.510;2023-07-28T06:33:13;20.60;62.40
39777;DHT22;25453;48.162;14.510;2023-07-28T06:35:40;20.60;62.60
39777;DHT22;25453;48.162;14.510;2023-07-28T06:38:08;20.70;62.50
39777;DHT22;25453;48.162;14.510;2023-07-28T06:40:36;20.70;62.50
39777;DHT22;25453;48.162;14.510;2023-07-28T06:43:03;20.70;62.50
39777;DHT22;25453;48.162;14.510;2023-07-28T06:45:30;20.80;62.80
39777;DHT22;25453;48.162;14.510;2023-07-28T06:47:57;20.80;62.90
39777;DHT22;25453;48.162;14.510;2023-07-28T06:50:25;20.80;62.80
39777;DHT22;25453;48.162;14.510;2023-07-28T06:52:52;20.80;62.80
39777;DHT22;25453;48.162;14.510;2023-07-28T06:55:19;20.90;62.90
39777;DHT22;25453;48.162;14.510;2023-07-28T06:57:48;20.90;62.90
39777;DHT22;25453;48.162;14.510;2023-07-28T07:00:16;21.00;63.00
39777;DHT22;25453;48.162;14.510;2023-07-28T07:02:45;21.00;63.00
39777;DHT22;25453;48.162;14.510;2023-07-28T07:05:12;21.00;62.90
39777;DHT22;25453;48.162;14.510;2023-07-28T07:07:40;21.10;63.10
39777;DHT22;25453;48.162;14.510;2023-07-28T07:10:08;21.10;63.00
39777;DHT22;25453;48.162;14.510;2023-07-28T07:12:36;21.10;63.10
39777;DHT22;25453;48.162;14.510;2023-07-28T07:15:04;21.10;63.20
39777;DHT22;25453;48.162;14.510;2023-07-28T07:17:32;21.20;63.20
39777;DHT22;25453;48.162;14.510;2023-07-28T07:20:00;21.20;63.10
39777;DHT22;25453;48.162;14.510;2023-07-28T07:22:27;21.20;63.00
39777;DHT22;25453;48.162;14.510;2023-07-28T07:24:56;21.30;62.90
39777;DHT22;25453;48.162;14.510;2023-07-28T07:27:26;21.30;63.10
39777;DHT22;25453;48.162;14.510;2023-07-28T07:29:54;21.30;63.30
39777;DHT22;25453;48.162;14.510;2023-07-28T07:32:22;21.40;63.40
39777;DHT22;25453;48.162;14.510;2023-07-28T07:34:49;21.40;63.50
39777;DHT22;25453;48.162;14.510;2023-07-28T07:37:17;21.50;63.40
39777;DHT22;25453;48.162;14.510;2023-07-28T07:39:44;21.50;63.30
39777;DHT22;25453;48.162;14.510;2023-07-28T07:42:11;21.50;63.20
39777;DHT22;25453;48.162;14.510;2023-07-28T07:44:41;21.60;63.20
39777;DHT22;25453;48.162;14.510;2023-07-28T07:47:13;21.60;63.20
39777;DHT22;25453;48.162;14.510;2023-07-28T07:49:42;21.60;63.40
39777;DHT22;25453;48.162;14.510;2023-07-28T07:52:10;21.70;63.50
39777;DHT22;25453;48.162;14.510;2023-07-28T07:54:37;21.80;63.70
39777;DHT22;25453;48.162;14.510;2023-07-28T07:57:05;21.90;63.60
39777;DHT22;25453;48.162;14.510;2023-07-28T07:59:33;22.00;63.30
39777;DHT22;25453;48.162;14.510;2023-07-28T08:02:02;22.00;63.10
39777;DHT22;25453;48.162;14.510;2023-07-28T08:04:31;22.00;62.80
39777;DHT22;25453;48.162;14.510;2023-07-28T08:06:58;22.00;62.80
39777;DHT22;25453;48.162;14.510;2023-07-28T08:09:26;22.10;62.80
39777;DHT22;25453;48.162;14.510;2023-07-28T08:11:54;22.10;62.80
39777;DHT22;25453;48.162;14.510;2023-07-28T08:14:21;22.20;62.80
39777;DHT22;25453;48.162;14.510;2023-07-28T08:16:48;22.20;62.60
39777;DHT22;25453;48.162;14.510;2023-07-28T08:19:16;22.20;62.40
39777;DHT22;25453;48.162;14.510;2023-07-28T08:21:43;22.20;62.30
39777;DHT22;25453;48.162;14.510;2023-07-28T08:24:10;22.20;62.20
39777;DHT22;25453;48.162;14.510;2023-07-28T08:26:39;22.20;62.30
39777;DHT22;25453;48.162;14.510;2023-07-28T08:29:06;22.30;62.40
39777;DHT22;25453;48.162;14.510;2023-07-28T08:31:33;22.30;62.50
39777;DHT22;25453;48.162;14.510;2023-07-28T08:34:01;22.30;62.50
39777;DHT22;25453;48.162;14.510;2023-07-28T08:36:28;22.40;62.60
39777;DHT22;25453;48.162;14.510;2023-07-28T08:38:56;22.50;62.70
39777;DHT22;25453;48.162;14.510;2023-07-28T08:41:23;22.50;62.60
39777;DHT22;25453;48.162;14.510;2023-07-28T08:43:50;22.60;62.60
39777;DHT22;25453;48.162;14.510;2023-07-28T08:46:20;22.70;62.60
39777;DHT22;25453;48.162;14.510;2023-07-28T08:48:47;22.70;62.70
39777;DHT22;25453;48.162;14.510;2023-07-28T08:51:14;22.80;62.70
39777;DHT22;25453;48.162;14.510;2023-07-28T08:53:41;22.90;62.80
39777;DHT22;25453;48.162;14.510;2023-07-28T08:56:08;22.90;63.00
39777;DHT22;25453;48.162;14.510;2023-07-28T08:58:36;22.90;63.10
39777;DHT22;25453;48.162;14.510;2023-07-28T09:01:03;22.80;63.20
39777;DHT22;25453;48.162;14.510;2023-07-28T09:03:32;22.80;63.40
39777;DHT22;25453;48.162;14.510;2023-07-28T09:06:04;22.80;63.70
39777;DHT22;25453;48.162;14.510;2023-07-28T09:08:32;22.70;64.00
39777;DHT22;25453;48.162;14.510;2023-07-28T09:11:05;22.70;64.40
39777;DHT22;25453;48.162;14.510;2023-07-28T09:13:41;22.70;64.60
39777;DHT22;25453;48.162;14.510;2023-07-28T09:16:19;22.70;64.80
39777;DHT22;25453;48.162;14.510;2023-07-28T09:18:47;22.70;65.30
39777;DHT22;25453;48.162;14.510;2023-07-28T09:21:21;22.70;65.50
39777;DHT22;25453;48.162;14.510;2023-07-28T09:23:48;22.70;65.70
39777;DHT22;25453;48.162;14.510;2023-07-28T09:26:16;22.70;66.00
39777;DHT22;25453;48.162;14.510;2023-07-28T09:28:43;22.80;66.20
39777;DHT22;25453;48.162;14.510;2023-07-28T09:31:11;22.80;66.10
39777;DHT22;25453;48.162;14.510;2023-07-28T09:33:38;22.80;66.20
39777;DHT22;25453;48.162;14.510;2023-07-28T09:36:13;22.80;66.50
39777;DHT22;25453;48.162;14.510;2023-07-28T09:38:42;22.70;66.60
39777;DHT22;25453;48.162;14.510;2023-07-28T09:41:10;22.70;66.70
39777;DHT22;25453;48.162;14.510;2023-07-28T09:43:40;22.70;66.90
39777;DHT22;25453;48.162;14.510;2023-07-28T09:46:09;22.70;66.90
39777;DHT22;25453;48.162;14.510;2023-07-28T09:48:44;22.70;67.00
39777;DHT22;25453;48.162;14.510;2023-07-28T09:51:16;22.80;68.00
39777;DHT22;25453;48.162;14.510;2023-07-28T09:54:04;23.10;68.70
39777;DHT22;25453;48.162;14.510;2023-07-28T09:56:32;23.40;68.30
39777;DHT22;25453;48.162;14.510;2023-07-28T09:59:02;23.70;67.60
39777;DHT22;25453;48.162;14.510;2023-07-28T10:01:32;24.00;66.90
39777;DHT22;25453;48.162;14.510;2023-07-28T10:04:01;24.20;66.20
39777;DHT22;25453;48.162;14.510;2023-07-28T10:06:28;24.40;65.60
39777;DHT22;25453;48.162;14.510;2023-07-28T10:08:57;24.60;65.00
39777;DHT22;25453;48.162;14.510;2023-07-28T10:11:25;24.70;64.60
39777;DHT22;25453;48.162;14.510;2023-07-28T10:13:54;24.70;63.90
39777;DHT22;25453;48.162;14.510;2023-07-28T10:16:30;24.70;63.90
39777;DHT22;25453;48.162;14.510;2023-07-28T10:18:59;24.80;64.00
39777;DHT22;25453;48.162;14.510;2023-07-28T10:21:28;24.80;63.70
39777;DHT22;25453;48.162;14.510;2023-07-28T10:23:57;24.90;63.60
39777;DHT22;25453;48.162;14.510;2023-07-28T10:26:41;25.10;63.60
39777;DHT22;25453;48.162;14.510;2023-07-28T10:29:14;25.30;63.40
39777;DHT22;25453;48.162;14.510;2023-07-28T10:31:52;25.50;63.20
39777;DHT22;25453;48.162;14.510;2023-07-28T10:34:21;25.80;62.70
39777;DHT22;25453;48.162;14.510;2023-07-28T10:36:58;26.10;61.60
39777;DHT22;25453;48.162;14.510;2023-07-28T10:39:26;26.30;61.20
39777;DHT22;25453;48.162;14.510;2023-07-28T10:42:06;26.60;60.80
39777;DHT22;25453;48.162;14.510;2023-07-28T10:44:37;26.90;60.20
39777;DHT22;25453;48.162;14.510;2023-07-28T10:47:09;27.20;59.40
39777;DHT22;25453;48.162;14.510;2023-07-28T10:49:37;27.40;58.70
39777;DHT22;25453;48.162;14.510;2023-07-28T10:52:04;27.50;57.70
39777;DHT22;25453;48.162;14.510;2023-07-28T10:54:32;27.70;57.60
39777;DHT22;25453;48.162;14.510;2023-07-28T10:57:02;27.80;56.90
39777;DHT22;25453;48.162;14.510;2023-07-28T10:59:32;27.80;56.10
39777;DHT22;25453;48.162;14.510;2023-07-28T11:01:59;27.70;55.90
39777;DHT22;25453;48.162;14.510;2023-07-28T11:04:27;27.70;56.00
39777;DHT22;25453;48.162;14.510;2023-07-28T11:06:54;27.70;56.20
39777;DHT22;25453;48.162;14.510;2023-07-28T11:09:24;27.70;56.30
39777;DHT22;25453;48.162;14.510;2023-07-28T11:11:52;27.70;56.10
39777;DHT22;25453;48.162;14.510;2023-07-28T11:14:19;27.70;55.60
39777;DHT22;25453;48.162;14.510;2023-07-28T11:16:47;27.50;55.50
39777;DHT22;25453;48.162;14.510;2023-07-28T11:19:16;27.30;55.50
39777;DHT22;25453;48.162;14.510;2023-07-28T11:21:46;27.20;55.80
39777;DHT22;25453;48.162;14.510;2023-07-28T11:24:19;27.00;56.30
39777;DHT22;25453;48.162;14.510;2023-07-28T11:26:47;26.90;56.60
39777;DHT22;25453;48.162;14.510;2023-07-28T11:29:16;26.80;56.70
39777;DHT22;25453;48.162;14.510;2023-07-28T11:31:45;26.60;56.90
39777;DHT22;25453;48.162;14.510;2023-07-28T11:34:16;26.40;57.20
39777;DHT22;25453;48.162;14.510;2023-07-28T11:36:44;26.30;57.20
39777;DHT22;25453;48.162;14.510;2023-07-28T11:39:11;26.20;57.30
39777;DHT22;25453;48.162;14.510;2023-07-28T11:41:39;26.00;57.30
39777;DHT22;25453;48.162;14.510;2023-07-28T11:44:07;26.00;57.40
39777;DHT22;25453;48.162;14.510;2023-07-28T11:46:39;25.90;57.60
39777;DHT22;25453;48.162;14.510;2023-07-28T11:49:17;25.90;57.40
39777;DHT22;25453;48.162;14.510;2023-07-28T11:51:48;25.80;57.50
39777;DHT22;25453;48.162;14.510;2023-07-28T11:54:17;25.80;57.30
39777;DHT22;25453;48.162;14.510;2023-07-28T11:56:50;25.70;57.20
39777;DHT22;25453;48.162;14.510;2023-07-28T11:59:19;25.60;57.10
39777;DHT22;25453;48.162;14.510;2023-07-28T12:01:59;25.60;57.10
39777;DHT22;25453;48.162;14.510;2023-07-28T12:04:30;25.60;57.30
39777;DHT22;25453;48.162;14.510;2023-07-28T12:07:15;25.60;57.50
39777;DHT22;25453;48.162;14.510;2023-07-28T12:12:13;25.70;57.50
39777;DHT22;25453;48.162;14.510;2023-07-28T12:14:44;25.80;57.50
39777;DHT22;25453;48.162;14.510;2023-07-28T12:17:34;25.90;57.30
39777;DHT22;25453;48.162;14.510;2023-07-28T12:20:08;26.00;56.80
39777;DHT22;25453;48.162;14.510;2023-07-28T12:22:43;26.10;56.40
39777;DHT22;25453;48.162;14.510;2023-07-28T12:25:12;26.00;56.20
39777;DHT22;25453;48.162;14.510;2023-07-28T12:27:39;26.00;56.00
39777;DHT22;25453;48.162;14.510;2023-07-28T12:30:07;25.90;55.80
39777;DHT22;25453;48.162;14.510;2023-07-28T12:32:38;25.80;55.70
39777;DHT22;25453;48.162;14.510;2023-07-28T12:35:07;25.80;55.60
39777;DHT22;25453;48.162;14.510;2023-07-28T12:37:38;25.70;55.70
39777;DHT22;25453;48.162;14.510;2023-07-28T12:40:09;25.60;55.70
39777;DHT22;25453;48.162;14.510;2023-07-28T12:42:58;25.50;55.80
39777;DHT22;25453;48.162;14.510;2023-07-28T12:45:28;25.40;55.70
39777;DHT22;25453;48.162;14.510;2023-07-28T12:48:15;25.40;55.60
39777;DHT22;25453;48.162;14.510;2023-07-28T12:50:45;25.30;55.80
39777;DHT22;25453;48.162;14.510;2023-07-28T12:53:13;25.30;55.50
39777;DHT22;25453;48.162;14.510;2023-07-28T12:55:47;25.30;55.50
39777;DHT22;25453;48.162;14.510;2023-07-28T12:58:17;25.20;55.50
39777;DHT22;25453;48.162;14.510;2023-07-28T13:00:47;25.10;55.50
39777;DHT22;25453;48.162;14.510;2023-07-28T13:03:17;25.10;55.40
39777;DHT22;25453;48.162;14.510;2023-07-28T13:05:45;25.10;55.40
39777;DHT22;25453;48.162;14.510;2023-07-28T13:08:15;25.00;55.60
39777;DHT22;25453;48.162;14.510;2023-07-28T13:10:43;25.00;55.70
39777;DHT22;25453;48.162;14.510;2023-07-28T13:13:13;25.00;55.90
39777;DHT22;25453;48.162;14.510;2023-07-28T13:15:41;24.90;56.00
39777;DHT22;25453;48.162;14.510;2023-07-28T13:18:08;24.90;56.10
39777;DHT22;25453;48.162;14.510;2023-07-28T13:20:36;24.90;56.20
39777;DHT22;25453;48.162;14.510;2023-07-28T13:23:03;24.90;56.40
39777;DHT22;25453;48.162;14.510;2023-07-28T13:25:30;24.90;56.50
39777;DHT22;25453;48.162;14.510;2023-07-28T13:27:57;24.90;56.60
39777;DHT22;25453;48.162;14.510;2023-07-28T13:30:25;24.90;56.60
39777;DHT22;25453;48.162;14.510;2023-07-28T13:32:56;24.90;56.60
39777;DHT22;25453;48.162;14.510;2023-07-28T13:35:23;24.90;56.70
39777;DHT22;25453;48.162;14.510;2023-07-28T13:37:52;24.90;56.80
39777;DHT22;25453;48.162;14.510;2023-07-28T13:40:19;25.00;57.00
39777;DHT22;25453;48.162;14.510;2023-07-28T13:42:46;25.00;57.10
39777;DHT22;25453;48.162;14.510;2023-07-28T13:45:14;25.00;57.30
39777;DHT22;25453;48.162;14.510;2023-07-28T13:47:42;25.00;57.40
39777;DHT22;25453;48.162;14.510;2023-07-28T13:50:09;25.10;57.50
39777;DHT22;25453;48.162;14.510;2023-07-28T13:52:36;25.10;57.60
39777;DHT22;25453;48.162;14.510;2023-07-28T13:55:04;25.10;57.40
39777;DHT22;25453;48.162;14.510;2023-07-28T13:57:35;25.20;57.40
39777;DHT22;25453;48.162;14.510;2023-07-28T14:00:03;25.20;57.40
39777;DHT22;25453;48.162;14.510;2023-07-28T14:02:30;25.20;57.40
39777;DHT22;25453;48.162;14.510;2023-07-28T14:04:58;25.20;57.40
39777;DHT22;25453;48.162;14.510;2023-07-28T14:07:25;25.20;57.60
39777;DHT22;25453;48.162;14.510;2023-07-28T14:09:55;25.20;57.70
39777;DHT22;25453;48.162;14.510;2023-07-28T14:12:22;25.20;57.90
39777;DHT22;25453;48.162;14.510;2023-07-28T14:14:49;25.20;57.90
39777;DHT22;25453;48.162;14.510;2023-07-28T14:17:16;25.20;58.20
39777;DHT22;25453;48.162;14.510;2023-07-28T14:19:44;25.20;58.10
39777;DHT22;25453;48.162;14.510;2023-07-28T14:22:11;25.20;58.20
39777;DHT22;25453;48.162;14.510;2023-07-28T14:24:38;25.20;58.30
39777;DHT22;25453;48.162;14.510;2023-07-28T14:27:06;25.20;58.40
39777;DHT22;25453;48.162;14.510;2023-07-28T14:29:33;25.20;58.50
39777;DHT22;25453;48.162;14.510;2023-07-28T14:32:00;25.20;58.70
39777;DHT22;25453;48.162;14.510;2023-07-28T14:34:28;25.30;58.80
39777;DHT22;25453;48.162;14.510;2023-07-28T14:36:55;25.40;58.80
39777;DHT22;25453;48.162;14.510;2023-07-28T14:39:22;25.60;58.40
39777;DHT22;25453;48.162;14.510;2023-07-28T14:41:49;25.60;58.20
39777;DHT22;25453;48.162;14.510;2023-07-28T14:44:17;25.60;58.00
39777;DHT22;25453;48.162;14.510;2023-07-28T14:46:44;25.60;57.80
39777;DHT22;25453;48.162;14.510;2023-07-28T14:49:13;25.60;57.70
39777;DHT22;25453;48.162;14.510;2023-07-28T14:51:41;25.50;57.80
39777;DHT22;25453;48.162;14.510;2023-07-28T14:54:08;25.40;57.90
39777;DHT22;25453;48.162;14.510;2023-07-28T14:56:35;25.40;57.90
39777;DHT22;25453;48.162;14.510;2023-07-28T14:59:02;25.30;57.80
39777;DHT22;25453;48.162;14.510;2023-07-28T15:01:31;25.20;57.80
39777;DHT22;25453;48.162;14.510;2023-07-28T15:04:00;25.10;57.90
39777;DHT22;25453;48.162;14.510;2023-07-28T15:06:30;25.00;58.00
39777;DHT22;25453;48.162;14.510;2023-07-28T15:08:58;24.90;58.10
39777;DHT22;25453;48.162;14.510;2023-07-28T15:11:25;24.80;58.20
39777;DHT22;25453;48.162;14.510;2023-07-28T15:13:53;24.70;58.40
39777;DHT22;25453;48.162;14.510;2023-07-28T15:16:20;24.60;58.50
39777;DHT22;25453;48.162;14.510;2023-07-28T15:18:48;24.50;58.70
39777;DHT22;25453;48.162;14.510;2023-07-28T15:21:15;24.40;58.90
39777;DHT22;25453;48.162;14.510;2023-07-28T15:23:43;24.30;58.90
39777;DHT22;25453;48.162;14.510;2023-07-28T15:26:10;24.20;59.10
39777;DHT22;25453;48.162;14.510;2023-07-28T15:28:37;24.20;59.30
39777;DHT22;25453;48.162;14.510;2023-07-28T15:31:05;24.10;59.50